| time (UTC) | temp C | wind direction | speed KPH | gust KPH | rain 1hr cm | rain 24hr cm | rain mn cm | humidity % | barometer mb |
| 20260905205004 | 29 | 250 | 0.0 | 0.0 | 0.03 | 0.43 | 0.43 | 82 | 1012.1 |
| 20260905204518 | 28 | 250 | 0.0 | 0.0 | 0.10 | 0.43 | 0.43 | 82 | 1012.1 |
| 20260905204004 | 28 | 250 | 0.0 | 0.0 | 0.25 | 0.43 | 0.43 | 83 | 1012.1 |
| 20260905203504 | 28 | 250 | 0.0 | 0.0 | 0.43 | 0.43 | 0.43 | 87 | 1012.1 |
| 20260905203017 | 27 | 250 | 0.0 | 0.0 | 0.43 | 0.43 | 0.43 | 85 | 1012.2 |
| 20260905202503 | 27 | 250 | 0.0 | 0.0 | 0.43 | 0.43 | 0.43 | 84 | 1012.2 |
| 20260905202003 | 27 | 250 | 0.0 | 0.0 | 0.43 | 0.43 | 0.43 | 85 | 1012.2 |
| 20260905201507 | 26 | 250 | 0.0 | 0.0 | 0.43 | 0.43 | 0.43 | 88 | 1012.3 |
| 20260905201004 | 25 | 250 | 0.0 | 0.0 | 0.43 | 0.43 | 0.43 | 86 | 1012.3 |
| 20260905200503 | 23 | 250 | 0.0 | 0.0 | 0.43 | 0.43 | 0.43 | 86 | 1012.3 |
| 20260905200011 | 23 | 250 | 0.0 | 0.0 | 0.43 | 0.43 | 0.43 | 86 | 1012.5 |
| 20260905195507 | 23 | 250 | 0.0 | 12.9 | 0.43 | 0.43 | 0.43 | 84 | 1012.5 |
| 20260905195011 | 24 | 250 | 0.0 | 22.5 | 0.41 | 0.41 | 0.41 | 75 | 1012.8 |
| 20260905194506 | 26 | 223 | 4.8 | 24.1 | 0.33 | 0.33 | 0.33 | 69 | 1013.0 |
| 20260905194003 | 28 | 315 | 11.3 | 24.1 | 0.18 | 0.18 | 0.18 | 69 | 1013.3 |
| 20260905193508 | 30 | 96 | 0.0 | 0.0 | 0.00 | 0.00 | 0.00 | 75 | 1012.7 |
| 20260905193005 | 31 | 96 | 0.0 | 0.0 | 0.00 | 0.00 | 0.00 | 69 | 1012.7 |
| 20260905192505 | 31 | 96 | 0.0 | 1.6 | 0.00 | 0.00 | 0.00 | 69 | 1012.4 |
| 20260905192008 | 31 | 96 | 0.0 | 9.7 | 0.00 | 0.00 | 0.00 | 66 | 1012.5 |
| 20260905191503 | 32 | 96 | 0.0 | 9.7 | 0.00 | 0.00 | 0.00 | 63 | 1012.7 |
| 20260905191004 | 32 | 86 | 0.0 | 0.0 | 0.00 | 0.00 | 0.00 | 62 | 1012.8 |
| 20260905190504 | 32 | 86 | 0.0 | 0.0 | 0.00 | 0.00 | 0.00 | 60 | 1012.8 |
| 20260905190026 | 32 | 86 | 0.0 | 0.0 | 0.00 | 0.00 | 0.00 | 66 | 1012.7 |
| 20260905185504 | 32 | 111 | 0.0 | 0.0 | 0.00 | 0.00 | 0.00 | 63 | 1012.8 |
| 20260905185006 | 31 | 111 | 0.0 | 0.0 | 0.00 | 0.00 | 0.00 | 67 | 1012.9 |
| 20260905184515 | 32 | 111 | 0.0 | 0.0 | 0.00 | 0.00 | 0.00 | 61 | 1013.1 |
| 20260905184008 | 32 | 111 | 0.0 | 0.0 | 0.00 | 0.00 | 0.00 | 61 | 1013.2 |
| 20260905183503 | 32 | 111 | 0.0 | 0.0 | 0.00 | 0.00 | 0.00 | 64 | 1013.3 |
| 20260905183016 | 32 | 111 | 0.0 | 9.7 | 0.00 | 0.00 | 0.00 | 62 | 1013.3 |
| 20260905182508 | 32 | 111 | 0.0 | 9.7 | 0.00 | 0.00 | 0.00 | 61 | 1013.4 |
| 20260905182010 | 32 | 107 | 0.0 | 11.3 | 0.00 | 0.00 | 0.00 | 66 | 1013.4 |
| 20260905181512 | 32 | 107 | 0.0 | 11.3 | 0.00 | 0.00 | 0.00 | 65 | 1013.5 |
| 20260905181007 | 32 | 104 | 0.0 | 4.8 | 0.00 | 0.00 | 0.00 | 67 | 1013.5 |
| 20260905180506 | 32 | 104 | 0.0 | 4.8 | 0.00 | 0.00 | 0.00 | 69 | 1013.6 |
| 20260905180008 | 32 | 104 | 0.0 | 4.8 | 0.00 | 0.00 | 0.00 | 67 | 1013.7 |
| 20260905175504 | 31 | 104 | 0.0 | 4.8 | 0.00 | 0.00 | 0.00 | 65 | 1013.8 |
| 20260905175006 | 32 | 104 | 0.0 | 4.8 | 0.00 | 0.00 | 0.00 | 63 | 1013.8 |
| 20260905174512 | 31 | 104 | 0.0 | 1.6 | 0.00 | 0.00 | 0.00 | 66 | 1013.9 |
| 20260905174005 | 31 | 104 | 0.0 | 0.0 | 0.00 | 0.00 | 0.00 | 66 | 1013.9 |
| 20260905173507 | 31 | 104 | 0.0 | 1.6 | 0.00 | 0.00 | 0.00 | 66 | 1013.8 |
| 20260905173015 | 31 | 104 | 0.0 | 1.6 | 0.00 | 0.00 | 0.00 | 66 | 1013.8 |
| 20260905172504 | 31 | 104 | 0.0 | 11.3 | 0.00 | 0.00 | 0.00 | 65 | 1013.9 |
| 20260905172004 | 30 | 104 | 0.0 | 11.3 | 0.00 | 0.00 | 0.00 | 69 | 1013.9 |
| 20260905171518 | 31 | 96 | 0.0 | 0.0 | 0.00 | 0.00 | 0.00 | 66 | 1013.9 |
| 20260905171012 | 30 | 96 | 0.0 | 1.6 | 0.00 | 0.00 | 0.00 | 66 | 1014.0 |
| 20260905170503 | 30 | 96 | 0.0 | 11.3 | 0.00 | 0.00 | 0.00 | 66 | 1014.1 |
| 20260905170014 | 30 | 96 | 4.8 | 11.3 | 0.00 | 0.00 | 0.00 | 70 | 1014.2 |
| 20260905165503 | 30 | 98 | 0.0 | 1.6 | 0.00 | 0.00 | 0.00 | 66 | 1014.3 |
| 20260905165004 | 30 | 98 | 0.0 | 6.4 | 0.00 | 0.00 | 0.00 | 67 | 1014.3 |
| 20260905164510 | 30 | 98 | 1.6 | 6.4 | 0.00 | 0.00 | 0.00 | 70 | 1014.3 |
| 20260905164004 | 30 | 97 | 0.0 | 0.0 | 0.00 | 0.00 | 0.00 | 73 | 1014.2 |
| 20260905163507 | 28 | 97 | 0.0 | 0.0 | 0.00 | 0.00 | 0.00 | 70 | 1014.2 |
| 20260905163010 | 28 | 97 | 0.0 | 1.6 | 0.00 | 0.00 | 0.00 | 72 | 1014.2 |
| 20260905162509 | 28 | 97 | 0.0 | 6.4 | 0.00 | 0.00 | 0.00 | 70 | 1014.2 |
| 20260905162008 | 28 | 97 | 0.0 | 6.4 | 0.00 | 0.00 | 0.00 | 69 | 1014.3 |
| 20260905161507 | 28 | 97 | 0.0 | 11.3 | 0.00 | 0.00 | 0.00 | 69 | 1014.4 |
| 20260905161004 | 28 | 97 | 1.6 | 11.3 | 0.00 | 0.00 | 0.00 | 69 | 1014.2 |
| 20260905160510 | 28 | 98 | 0.0 | 11.3 | 0.00 | 0.00 | 0.00 | 70 | 1014.2 |
| 20260905160027 | 29 | 97 | 0.0 | 6.4 | 0.00 | 0.00 | 0.00 | 66 | 1014.2 |
| 20260905155506 | 28 | 97 | 0.0 | 14.5 | 0.00 | 0.00 | 0.00 | 69 | 1014.3 |
| 20260905155007 | 28 | 97 | 1.6 | 14.5 | 0.00 | 0.00 | 0.00 | 67 | 1014.5 |
| 20260905154504 | 28 | 96 | 3.2 | 14.5 | 0.00 | 0.00 | 0.00 | 70 | 1014.6 |
| 20260905154004 | 28 | 101 | 4.8 | 14.5 | 0.00 | 0.00 | 0.00 | 67 | 1014.6 |
| 20260905153505 | 28 | 101 | 3.2 | 14.5 | 0.00 | 0.00 | 0.00 | 69 | 1014.5 |
| 20260905153013 | 28 | 99 | 3.2 | 14.5 | 0.00 | 0.00 | 0.00 | 69 | 1014.4 |
| 20260905152506 | 28 | 99 | 6.4 | 14.5 | 0.00 | 0.00 | 0.00 | 69 | 1014.3 |
| 20260905152004 | 28 | 104 | 0.0 | 14.5 | 0.00 | 0.00 | 0.00 | 72 | 1014.3 |
| 20260905151516 | 28 | 104 | 3.2 | 14.5 | 0.00 | 0.00 | 0.00 | 70 | 1014.2 |
| 20260905151010 | 28 | 100 | 1.6 | 12.9 | 0.00 | 0.00 | 0.00 | 70 | 1014.3 |
| 20260905150510 | 28 | 100 | 0.0 | 12.9 | 0.00 | 0.00 | 0.00 | 71 | 1014.4 |
| 20260905150018 | 28 | 102 | 3.2 | 12.9 | 0.00 | 0.00 | 0.00 | 71 | 1014.7 |
| 20260905145509 | 28 | 101 | 0.0 | 6.4 | 0.00 | 0.00 | 0.00 | 72 | 1014.5 |
| 20260905145011 | 27 | 101 | 0.0 | 16.1 | 0.00 | 0.00 | 0.00 | 72 | 1014.5 |
| 20260905144508 | 27 | 101 | 4.8 | 16.1 | 0.00 | 0.00 | 0.00 | 71 | 1014.5 |
| 20260905144008 | 27 | 105 | 0.0 | 12.9 | 0.00 | 0.00 | 0.00 | 73 | 1014.5 |
| 20260905143504 | 27 | 105 | 0.0 | 11.3 | 0.00 | 0.00 | 0.00 | 73 | 1014.5 |
| 20260905143019 | 27 | 104 | 3.2 | 14.5 | 0.00 | 0.00 | 0.00 | 75 | 1014.5 |
| 20260905142506 | 27 | 104 | 0.0 | 14.5 | 0.00 | 0.00 | 0.00 | 75 | 1014.4 |
| 20260905142006 | 27 | 99 | 0.0 | 12.9 | 0.00 | 0.00 | 0.00 | 75 | 1014.3 |
| 20260905141520 | 27 | 99 | 0.0 | 14.5 | 0.00 | 0.00 | 0.00 | 76 | 1014.3 |
| 20260905141005 | 27 | 98 | 4.8 | 14.5 | 0.00 | 0.00 | 0.00 | 77 | 1014.5 |
| 20260905140508 | 27 | 116 | 4.8 | 12.9 | 0.00 | 0.00 | 0.00 | 77 | 1014.5 |
| 20260905140024 | 26 | 126 | 3.2 | 11.3 | 0.00 | 0.00 | 0.00 | 80 | 1014.5 |
| 20260905135513 | 26 | 126 | 1.6 | 11.3 | 0.00 | 0.00 | 0.00 | 80 | 1014.5 |
| 20260905135006 | 26 | 128 | 0.0 | 12.9 | 0.00 | 0.00 | 0.00 | 83 | 1014.5 |
| 20260905134524 | 25 | 128 | 4.8 | 12.9 | 0.00 | 0.00 | 0.00 | 83 | 1014.5 |
| 20260905134012 | 25 | 129 | 1.6 | 17.7 | 0.00 | 0.00 | 0.00 | 84 | 1014.5 |
| 20260905133505 | 24 | 129 | 6.4 | 17.7 | 0.00 | 0.00 | 0.00 | 85 | 1014.5 |
| 20260905133025 | 24 | 220 | 0.0 | 0.0 | 0.00 | 0.00 | 0.00 | 87 | 1014.4 |
| 20260905132504 | 25 | 220 | 0.0 | 0.0 | 0.00 | 0.00 | 0.00 | 85 | 1014.2 |
| 20260905132005 | 25 | 220 | 0.0 | 0.0 | 0.00 | 0.00 | 0.00 | 85 | 1014.2 |
| 20260905131527 | 25 | 220 | 0.0 | 0.0 | 0.00 | 0.00 | 0.00 | 87 | 1014.1 |
| 20260905131009 | 24 | 220 | 0.0 | 0.0 | 0.00 | 0.00 | 0.00 | 88 | 1014.1 |
| 20260905130508 | 23 | 220 | 0.0 | 0.0 | 0.00 | 0.00 | 0.00 | 89 | 1014.1 |
| 20260905130032 | 23 | 220 | 0.0 | 0.0 | 0.00 | 0.00 | 0.00 | 90 | 1014.1 |
| 20260905125508 | 23 | 220 | 0.0 | 0.0 | 0.00 | 0.00 | 0.00 | 90 | 1014.0 |
| 20260905125010 | 23 | 220 | 0.0 | 0.0 | 0.00 | 0.00 | 0.00 | 90 | 1014.0 |
| 20260905124527 | 23 | 220 | 0.0 | 0.0 | 0.00 | 0.00 | 0.00 | 90 | 1014.0 |
| 20260905124005 | 23 | 220 | 0.0 | 0.0 | 0.00 | 0.00 | 0.00 | 90 | 1013.9 |
| 20260905123510 | 23 | 220 | 0.0 | 0.0 | 0.00 | 0.00 | 0.00 | 90 | 1013.9 |
| 20260905123027 | 23 | 220 | 0.0 | 0.0 | 0.00 | 0.00 | 0.00 | 90 | 1013.9 |
| 20260905122518 | 23 | 220 | 0.0 | 0.0 | 0.00 | 0.00 | 0.00 | 90 | 1013.8 |
| 20260905122010 | 22 | 220 | 0.0 | 0.0 | 0.00 | 0.00 | 0.00 | 90 | 1013.8 |
| 20260905121513 | 22 | 220 | 0.0 | 0.0 | 0.00 | 0.00 | 0.00 | 90 | 1013.8 |
| 20260905121005 | 22 | 220 | 0.0 | 0.0 | 0.00 | 0.00 | 0.00 | 90 | 1013.8 |
| 20260905120503 | 22 | 220 | 0.0 | 0.0 | 0.00 | 0.00 | 0.00 | 90 | 1013.7 |
| 20260905120016 | 22 | 220 | 0.0 | 0.0 | 0.00 | 0.00 | 0.00 | 90 | 1013.7 |
| 20260905115508 | 22 | 220 | 0.0 | 0.0 | 0.00 | 0.00 | 0.00 | 90 | 1013.8 |
| 20260905115004 | 22 | 220 | 0.0 | 0.0 | 0.00 | 0.00 | 0.00 | 90 | 1013.8 |
| 20260905114516 | 22 | 220 | 0.0 | 0.0 | 0.00 | 0.00 | 0.00 | 90 | 1013.8 |
| 20260905114013 | 22 | 220 | 0.0 | 0.0 | 0.00 | 0.00 | 0.00 | 90 | 1013.6 |
| 20260905113504 | 22 | 220 | 0.0 | 0.0 | 0.00 | 0.00 | 0.00 | 90 | 1013.6 |
| 20260905113008 | 22 | 220 | 0.0 | 0.0 | 0.00 | 0.00 | 0.00 | 90 | 1013.6 |
| 20260905112505 | 22 | 220 | 0.0 | 0.0 | 0.00 | 0.00 | 0.00 | 90 | 1013.6 |
| 20260905112003 | 22 | 220 | 0.0 | 0.0 | 0.00 | 0.00 | 0.00 | 90 | 1013.6 |
| 20260905111508 | 22 | 220 | 0.0 | 0.0 | 0.00 | 0.00 | 0.00 | 90 | 1013.7 |
| 20260905111005 | 22 | 220 | 0.0 | 0.0 | 0.00 | 0.00 | 0.00 | 90 | 1013.6 |
| 20260905110509 | 22 | 220 | 0.0 | 0.0 | 0.00 | 0.00 | 0.00 | 90 | 1013.6 |
| 20260905110005 | 22 | 220 | 0.0 | 0.0 | 0.00 | 0.00 | 0.00 | 90 | 1013.6 |
| 20260905105506 | 22 | 220 | 0.0 | 0.0 | 0.00 | 0.00 | 0.00 | 90 | 1013.6 |
| 20260905105009 | 22 | 220 | 0.0 | 0.0 | 0.00 | 0.00 | 0.00 | 90 | 1013.6 |
| 20260905104518 | 22 | 220 | 0.0 | 0.0 | 0.00 | 0.00 | 0.00 | 90 | 1013.5 |
| 20260905104006 | 22 | 220 | 0.0 | 0.0 | 0.00 | 0.00 | 0.00 | 90 | 1013.5 |
| 20260905103509 | 22 | 220 | 0.0 | 0.0 | 0.00 | 0.00 | 0.00 | 90 | 1013.6 |
| 20260905103026 | 22 | 220 | 0.0 | 0.0 | 0.00 | 0.00 | 0.00 | 90 | 1013.6 |
| 20260905102503 | 22 | 220 | 0.0 | 0.0 | 0.00 | 0.00 | 0.00 | 90 | 1013.6 |
| 20260905102003 | 22 | 220 | 0.0 | 0.0 | 0.00 | 0.00 | 0.00 | 90 | 1013.6 |
| 20260905101509 | 22 | 220 | 0.0 | 0.0 | 0.00 | 0.00 | 0.00 | 90 | 1013.5 |
| 20260905101004 | 22 | 220 | 0.0 | 0.0 | 0.00 | 0.00 | 0.00 | 89 | 1013.5 |
| 20260905100506 | 22 | 220 | 0.0 | 0.0 | 0.00 | 0.00 | 0.00 | 89 | 1013.5 |
| 20260905100019 | 22 | 220 | 0.0 | 0.0 | 0.00 | 0.00 | 0.00 | 89 | 1013.5 |
| 20260905095506 | 22 | 220 | 0.0 | 0.0 | 0.00 | 0.00 | 0.00 | 89 | 1013.5 |
| 20260905095006 | 22 | 220 | 0.0 | 0.0 | 0.00 | 0.00 | 0.00 | 89 | 1013.5 |
| 20260905094515 | 22 | 220 | 0.0 | 0.0 | 0.00 | 0.00 | 0.00 | 89 | 1013.4 |
| 20260905094009 | 22 | 220 | 0.0 | 0.0 | 0.00 | 0.00 | 0.00 | 89 | 1013.5 |
| 20260905093509 | 23 | 220 | 0.0 | 0.0 | 0.00 | 0.00 | 0.00 | 89 | 1013.5 |
| 20260905093007 | 22 | 220 | 0.0 | 0.0 | 0.00 | 0.00 | 0.00 | 89 | 1013.5 |
| 20260905092506 | 22 | 220 | 0.0 | 0.0 | 0.00 | 0.00 | 0.00 | 89 | 1013.5 |
| 20260905092010 | 22 | 220 | 0.0 | 0.0 | 0.00 | 0.00 | 0.00 | 90 | 1013.5 |
| 20260905091507 | 22 | 220 | 0.0 | 0.0 | 0.00 | 0.00 | 0.00 | 90 | 1013.4 |
| 20260905091003 | 22 | 220 | 0.0 | 0.0 | 0.00 | 0.00 | 0.00 | 90 | 1013.3 |
| 20260905090503 | 22 | 220 | 0.0 | 0.0 | 0.00 | 0.00 | 0.00 | 89 | 1013.3 |
| 20260905090008 | 23 | 220 | 0.0 | 0.0 | 0.00 | 0.00 | 0.00 | 89 | 1013.2 |
| 20260905085508 | 23 | 220 | 0.0 | 0.0 | 0.00 | 0.00 | 0.00 | 89 | 1013.1 |
| 20260905085011 | 23 | 220 | 0.0 | 0.0 | 0.00 | 0.00 | 0.00 | 89 | 1013.1 |
| 20260905084516 | 23 | 220 | 0.0 | 0.0 | 0.00 | 0.00 | 0.00 | 89 | 1013.1 |
| 20260905084004 | 23 | 220 | 0.0 | 0.0 | 0.00 | 0.00 | 0.00 | 90 | 1013.1 |
| 20260905083506 | 23 | 220 | 0.0 | 0.0 | 0.00 | 0.00 | 0.00 | 89 | 1013.0 |
| 20260905083019 | 23 | 220 | 0.0 | 0.0 | 0.00 | 0.00 | 0.00 | 89 | 1013.0 |
| 20260905082510 | 23 | 220 | 0.0 | 0.0 | 0.00 | 0.00 | 0.00 | 89 | 1013.0 |
| 20260905082005 | 23 | 220 | 0.0 | 0.0 | 0.00 | 0.00 | 0.00 | 89 | 1012.9 |
| 20260905081517 | 23 | 220 | 0.0 | 0.0 | 0.00 | 0.00 | 0.00 | 90 | 1012.9 |
| 20260905081012 | 23 | 220 | 0.0 | 0.0 | 0.00 | 0.00 | 0.00 | 90 | 1013.0 |
| 20260905080504 | 23 | 220 | 0.0 | 0.0 | 0.00 | 0.00 | 0.00 | 90 | 1013.0 |
| 20260905080010 | 23 | 220 | 0.0 | 0.0 | 0.00 | 0.00 | 0.00 | 90 | 1013.0 |
| 20260905075505 | 23 | 220 | 0.0 | 0.0 | 0.00 | 0.00 | 0.00 | 90 | 1013.0 |
| 20260905075003 | 23 | 220 | 0.0 | 0.0 | 0.00 | 0.00 | 0.00 | 90 | 1012.9 |
| 20260905074512 | 23 | 220 | 0.0 | 0.0 | 0.00 | 0.00 | 0.00 | 90 | 1013.0 |
| 20260905074009 | 23 | 220 | 0.0 | 0.0 | 0.00 | 0.00 | 0.00 | 90 | 1013.1 |
| 20260905073507 | 23 | 220 | 0.0 | 0.0 | 0.00 | 0.00 | 0.00 | 90 | 1013.0 |
| 20260905073023 | 23 | 220 | 0.0 | 0.0 | 0.00 | 0.00 | 0.00 | 90 | 1013.0 |
| 20260905072510 | 23 | 220 | 0.0 | 0.0 | 0.00 | 0.00 | 0.00 | 90 | 1013.0 |
| 20260905072008 | 23 | 220 | 0.0 | 0.0 | 0.00 | 0.00 | 0.00 | 90 | 1013.0 |
| 20260905071537 | 23 | 220 | 0.0 | 0.0 | 0.00 | 0.00 | 0.00 | 90 | 1013.1 |
| 20260905071006 | 23 | 220 | 0.0 | 0.0 | 0.00 | 0.00 | 0.00 | 90 | 1013.1 |
| 20260905070506 | 23 | 220 | 0.0 | 0.0 | 0.00 | 0.00 | 0.00 | 90 | 1013.2 |
| 20260905070028 | 23 | 220 | 0.0 | 0.0 | 0.00 | 0.00 | 0.00 | 90 | 1013.2 |
| 20260905065505 | 23 | 220 | 0.0 | 0.0 | 0.00 | 0.00 | 0.00 | 90 | 1013.2 |
| 20260905065004 | 23 | 220 | 0.0 | 0.0 | 0.00 | 0.00 | 0.00 | 90 | 1013.4 |
| 20260905064510 | 23 | 220 | 0.0 | 0.0 | 0.00 | 0.00 | 0.00 | 90 | 1013.4 |
| 20260905064004 | 23 | 220 | 0.0 | 0.0 | 0.00 | 0.00 | 0.00 | 90 | 1013.5 |
| 20260905063509 | 23 | 220 | 0.0 | 0.0 | 0.00 | 0.00 | 0.00 | 89 | 1013.6 |
| 20260905063018 | 23 | 220 | 0.0 | 0.0 | 0.00 | 0.00 | 0.00 | 89 | 1013.6 |
| 20260905062509 | 23 | 220 | 0.0 | 0.0 | 0.00 | 0.00 | 0.00 | 89 | 1013.7 |
| 20260905062010 | 23 | 220 | 0.0 | 0.0 | 0.00 | 0.00 | 0.00 | 89 | 1013.8 |
| 20260905061513 | 23 | 220 | 0.0 | 0.0 | 0.00 | 0.00 | 0.00 | 89 | 1013.8 |
| 20260905061009 | 23 | 220 | 0.0 | 0.0 | 0.00 | 0.00 | 0.00 | 90 | 1013.8 |
| 20260905060511 | 23 | 220 | 0.0 | 0.0 | 0.00 | 0.00 | 0.00 | 89 | 1013.8 |
| 20260905060010 | 23 | 220 | 0.0 | 0.0 | 0.00 | 0.00 | 0.00 | 89 | 1013.7 |
| 20260905055505 | 23 | 220 | 0.0 | 0.0 | 0.00 | 0.00 | 0.00 | 89 | 1013.8 |
| 20260905055238 | 23 | 220 | 0.0 | 0.0 | 0.00 | 0.00 | 0.00 | 89 | 1013.7 |
| 20260905055234 | 23 | 220 | 0.0 | 0.0 | 0.00 | 0.00 | 0.00 | 90 | 1013.8 |
| 20260905055230 | 23 | 220 | 0.0 | 0.0 | 0.00 | 0.00 | 0.00 | 89 | 1013.8 |
| 20260905055224 | 23 | 220 | 0.0 | 0.0 | 0.00 | 0.00 | 0.00 | 89 | 1013.9 |
| 20260905025015 | 25 | 220 | 0.0 | 0.0 | 0.00 | 0.00 | 0.00 | 89 | 1014.1 |
| 20260905024526 | 25 | 220 | 0.0 | 0.0 | 0.00 | 0.00 | 0.00 | 89 | 1014.1 |
| 20260905024012 | 25 | 220 | 0.0 | 0.0 | 0.00 | 0.00 | 0.00 | 88 | 1014.0 |
| 20260905023514 | 25 | 220 | 0.0 | 0.0 | 0.00 | 0.00 | 0.00 | 89 | 1013.9 |
| 20260905023028 | 25 | 220 | 0.0 | 0.0 | 0.00 | 0.00 | 0.00 | 88 | 1013.9 |
| 20260905022506 | 25 | 220 | 0.0 | 0.0 | 0.00 | 0.00 | 0.00 | 88 | 1013.9 |
| 20260905022010 | 25 | 220 | 0.0 | 0.0 | 0.00 | 0.00 | 0.00 | 88 | 1013.9 |
| 20260905021512 | 25 | 220 | 0.0 | 0.0 | 0.00 | 0.00 | 0.00 | 88 | 1013.9 |
| 20260905021006 | 25 | 220 | 0.0 | 0.0 | 0.00 | 0.00 | 0.00 | 88 | 1013.9 |
| 20260905020508 | 25 | 220 | 0.0 | 0.0 | 0.00 | 0.00 | 0.00 | 88 | 1013.9 |
| 20260905020019 | 25 | 220 | 0.0 | 0.0 | 0.00 | 0.00 | 0.00 | 88 | 1013.9 |
| 20260905015512 | 25 | 220 | 0.0 | 0.0 | 0.00 | 0.00 | 0.00 | 87 | 1013.9 |
| 20260905015006 | 25 | 220 | 0.0 | 0.0 | 0.00 | 0.00 | 0.00 | 87 | 1013.9 |
| 20260905014524 | 26 | 220 | 0.0 | 0.0 | 0.00 | 0.00 | 0.00 | 87 | 1013.9 |
| 20260905014013 | 26 | 220 | 0.0 | 0.0 | 0.00 | 0.00 | 0.00 | 87 | 1013.9 |
| 20260905013513 | 26 | 220 | 0.0 | 0.0 | 0.00 | 0.00 | 0.00 | 87 | 1013.8 |
| 20260905013018 | 26 | 220 | 0.0 | 0.0 | 0.00 | 0.00 | 0.00 | 87 | 1013.8 |
| 20260905012513 | 26 | 220 | 0.0 | 0.0 | 0.00 | 0.00 | 0.00 | 86 | 1013.7 |
| 20260905012017 | 26 | 220 | 0.0 | 0.0 | 0.00 | 0.00 | 0.00 | 86 | 1013.7 |
| 20260905011515 | 26 | 220 | 0.0 | 0.0 | 0.00 | 0.00 | 0.00 | 86 | 1013.6 |
| 20260905011011 | 26 | 220 | 0.0 | 0.0 | 0.00 | 0.00 | 0.00 | 86 | 1013.5 |
| 20260905010507 | 26 | 220 | 0.0 | 0.0 | 0.00 | 0.00 | 0.00 | 85 | 1013.4 |
| 20260905010018 | 26 | 220 | 0.0 | 0.0 | 0.00 | 0.00 | 0.00 | 85 | 1013.4 |
| 20260905005507 | 26 | 220 | 0.0 | 0.0 | 0.00 | 0.00 | 0.00 | 85 | 1013.4 |
| 20260905005012 | 26 | 220 | 0.0 | 0.0 | 0.00 | 0.00 | 0.00 | 84 | 1013.4 |
| 20260905004532 | 26 | 220 | 0.0 | 0.0 | 0.00 | 0.00 | 0.00 | 83 | 1013.3 |
| 20260905004005 | 26 | 220 | 0.0 | 0.0 | 0.00 | 0.00 | 0.00 | 83 | 1013.2 |
| 20260905003513 | 26 | 220 | 0.0 | 0.0 | 0.00 | 0.00 | 0.00 | 82 | 1013.2 |
| 20260905003029 | 27 | 220 | 0.0 | 0.0 | 0.00 | 0.00 | 0.00 | 81 | 1013.2 |
| 20260905002514 | 27 | 220 | 0.0 | 0.0 | 0.00 | 0.00 | 0.00 | 81 | 1013.2 |
| 20260905002008 | 27 | 220 | 0.0 | 0.0 | 0.00 | 0.00 | 0.00 | 80 | 1013.2 |
| 20260905001529 | 27 | 220 | 0.0 | 0.0 | 0.00 | 0.00 | 0.00 | 79 | 1013.2 |
| 20260905001016 | 27 | 220 | 0.0 | 0.0 | 0.00 | 0.00 | 0.00 | 78 | 1013.2 |
| 20260905000508 | 27 | 220 | 0.0 | 0.0 | 0.00 | 0.00 | 0.00 | 79 | 1013.2 |
| 20260905000027 | 28 | 220 | 0.0 | 0.0 | 0.00 | 0.00 | 0.00 | 78 | 1013.2 |
| 20260904235505 | 28 | 220 | 0.0 | 0.0 | 0.00 | 0.00 | 0.00 | 76 | 1013.3 |
| 20260904235008 | 28 | 220 | 0.0 | 0.0 | 0.00 | 0.00 | 0.00 | 75 | 1013.3 |
| 20260904234523 | 28 | 220 | 0.0 | 0.0 | 0.00 | 0.00 | 0.00 | 74 | 1013.3 |
| 20260904234008 | 28 | 220 | 0.0 | 0.0 | 0.00 | 0.00 | 0.00 | 74 | 1013.3 |
| 20260904233513 | 29 | 220 | 0.0 | 0.0 | 0.00 | 0.00 | 0.00 | 72 | 1013.3 |
| 20260904233016 | 30 | 220 | 0.0 | 0.0 | 0.00 | 0.00 | 0.00 | 72 | 1013.3 |
| 20260904232512 | 30 | 220 | 0.0 | 0.0 | 0.00 | 0.00 | 0.00 | 67 | 1013.3 |
| 20260904232017 | 31 | 220 | 0.0 | 1.6 | 0.00 | 0.00 | 0.00 | 64 | 1013.3 |
| 20260904231511 | 31 | 220 | 0.0 | 1.6 | 0.00 | 0.00 | 0.00 | 64 | 1013.2 |
| 20260904231004 | 31 | 220 | 0.0 | 0.0 | 0.00 | 0.00 | 0.00 | 61 | 1013.1 |
| 20260904230506 | 31 | 220 | 0.0 | 1.6 | 0.00 | 0.00 | 0.00 | 61 | 1013.1 |
| 20260904230011 | 31 | 220 | 0.0 | 1.6 | 0.00 | 0.00 | 0.00 | 62 | 1013.1 |
| 20260904225507 | 31 | 220 | 0.0 | 1.6 | 0.00 | 0.00 | 0.00 | 62 | 1013.1 |
| 20260904225007 | 32 | 220 | 0.0 | 4.8 | 0.00 | 0.00 | 0.00 | 60 | 1013.1 |
| 20260904224518 | 32 | 220 | 0.0 | 4.8 | 0.00 | 0.00 | 0.00 | 62 | 1013.1 |
| 20260904224008 | 32 | 220 | 0.0 | 1.6 | 0.00 | 0.00 | 0.00 | 59 | 1013.1 |
| 20260904223508 | 32 | 220 | 0.0 | 1.6 | 0.00 | 0.00 | 0.00 | 59 | 1013.1 |
| 20260904223028 | 32 | 220 | 0.0 | 1.6 | 0.00 | 0.00 | 0.00 | 57 | 1013.0 |
| 20260904222504 | 32 | 220 | 0.0 | 3.2 | 0.00 | 0.00 | 0.00 | 57 | 1013.0 |
| 20260904222008 | 32 | 220 | 0.0 | 3.2 | 0.00 | 0.00 | 0.00 | 56 | 1013.1 |
| 20260904221526 | 32 | 220 | 0.0 | 8.0 | 0.00 | 0.00 | 0.00 | 59 | 1013.1 |
| 20260904221014 | 33 | 220 | 0.0 | 8.0 | 0.00 | 0.00 | 0.00 | 55 | 1013.1 |
| 20260904220510 | 33 | 220 | 0.0 | 1.6 | 0.00 | 0.00 | 0.00 | 55 | 1013.1 |
| 20260904220012 | 33 | 220 | 0.0 | 11.3 | 0.00 | 0.00 | 0.00 | 53 | 1013.2 |
| 20260904215506 | 33 | 220 | 1.6 | 11.3 | 0.00 | 0.00 | 0.00 | 55 | 1013.3 |
| 20260904215012 | 33 | 220 | 0.0 | 9.7 | 0.00 | 0.00 | 0.00 | 52 | 1013.3 |
| 20260904214522 | 33 | 220 | 0.0 | 14.5 | 0.00 | 0.00 | 0.00 | 55 | 1013.3 |
| 20260904214010 | 33 | 220 | 3.2 | 14.5 | 0.00 | 0.00 | 0.00 | 52 | 1013.4 |
| 20260904213513 | 33 | 225 | 1.6 | 11.3 | 0.00 | 0.00 | 0.00 | 51 | 1013.3 |
| 20260904213025 | 33 | 225 | 0.0 | 8.0 | 0.00 | 0.00 | 0.00 | 54 | 1013.4 |
| 20260904212512 | 33 | 225 | 1.6 | 11.3 | 0.00 | 0.00 | 0.00 | 54 | 1013.4 |
| 20260904212010 | 33 | 225 | 3.2 | 11.3 | 0.00 | 0.00 | 0.00 | 54 | 1013.4 |
| 20260904211527 | 33 | 226 | 3.2 | 11.3 | 0.00 | 0.00 | 0.00 | 53 | 1013.4 |
| 20260904211006 | 33 | 225 | 0.0 | 9.7 | 0.00 | 0.00 | 0.00 | 54 | 1013.4 |
| 20260904210512 | 33 | 225 | 0.0 | 8.0 | 0.00 | 0.00 | 0.00 | 53 | 1013.4 |
| 20260904210038 | 34 | 225 | 0.0 | 11.3 | 0.00 | 0.00 | 0.00 | 54 | 1013.5 |
| 20260904205506 | 33 | 224 | 0.0 | 11.3 | 0.00 | 0.00 | 0.00 | 53 | 1013.5 |